Time;durP1;ratioP1;P1;durP2;ratioP2;P2;SDS_P1;SDS_P2;PMS_P1;PMS_P2;Temp;Humidity;BMP_temperature;BMP_pressure;BME280_temperature;BME280_humidity;BME280_pressure;Samples;Min_cycle;Max_cycle;Signal;HPM_P1;HPM_P2
2021/07/22 00:00:43;;;;;;;;;;;;;;;22.78;78.92;99637.93;473231;110;922626;-75
2021/07/22 00:01:46;;;;;;;;;;;;;;;22.76;78.94;99641.05;472856;109;922650;-75
2021/07/22 00:02:50;;;;;;;;;;;;;;;22.75;79.01;99649.70;473103;111;923249;-75
2021/07/22 00:03:54;;;;;;;;;;;;;;;22.72;78.98;99647.53;473676;109;923216;-75
2021/07/22 00:05:00;;;;;;;;;;;;;;;22.69;78.96;99643.42;473179;109;922695;-75
2021/07/22 00:06:03;;;;;;;;;;;;;;;22.66;78.99;99649.59;473545;110;922747;-76
2021/07/22 00:07:06;;;;;;;;;;;;;;;22.64;79.01;99645.51;471907;111;922645;-76
2021/07/22 00:08:11;;;;;;;;;;;;;;;22.63;79.01;99632.75;472456;109;922583;-77
2021/07/22 00:09:14;;;;;;;;;;;;;;;22.62;78.98;99639.44;471550;109;922661;-76
2021/07/22 00:10:18;;;;;;;;;;;;;;;22.61;78.95;99638.61;473702;110;922660;-76
2021/07/22 00:11:21;;;;;;;;;;;;;;;22.63;78.93;99636.34;471788;109;922763;-76
2021/07/22 00:12:24;;;;;;;;;;;;;;;22.66;78.85;99626.57;473720;110;922754;-75
2021/07/22 00:13:28;;;;;;;;;;;;;;;22.66;78.73;99621.02;472584;110;923028;-76
2021/07/22 00:14:31;;;;;;;;;;;;;;;22.67;78.76;99619.85;475545;109;921468;-77
2021/07/22 00:15:35;;;;;;;;;;;;;;;22.67;78.82;99628.19;472303;111;922736;-76
2021/07/22 00:16:38;;;;;;;;;;;;;;;22.68;78.87;99630.66;474744;109;921544;-77
2021/07/22 00:17:41;;;;;;;;;;;;;;;22.68;78.90;99635.39;474668;109;921973;-77
2021/07/22 00:18:45;;;;;;;;;;;;;;;22.68;78.89;99640.95;474997;110;921565;-75
2021/07/22 00:19:48;;;;;;;;;;;;;;;22.67;78.86;99647.64;471435;111;921426;-74
2021/07/22 00:20:52;;;;;;;;;;;;;;;22.65;78.92;99647.98;473182;109;921526;-74
2021/07/22 00:21:55;;;;;;;;;;;;;;;22.62;78.97;99637.48;469921;110;921612;-74
2021/07/22 00:22:58;;;;;;;;;;;;;;;22.61;79.03;99643.34;470662;112;921583;-75
2021/07/22 00:24:01;;;;;;;;;;;;;;;22.58;79.15;99632.88;469273;110;921487;-73
2021/07/22 00:25:05;;;;;;;;;;;;;;;22.58;79.37;99630.11;470110;110;921529;-74
2021/07/22 00:26:09;;;;;;;;;;;;;;;22.59;79.61;99632.58;469464;110;922652;-73
2021/07/22 00:27:14;;;;;;;;;;;;;;;22.61;79.82;99633.05;469740;110;922660;-74
2021/07/22 00:28:18;;;;;;;;;;;;;;;22.62;79.94;99625.55;468644;110;922593;-73
2021/07/22 00:29:24;;;;;;;;;;;;;;;22.64;80.00;99632.44;469446;110;922669;-73
2021/07/22 00:30:28;;;;;;;;;;;;;;;22.66;80.03;99641.26;469172;110;922736;-74
2021/07/22 00:31:33;;;;;;;;;;;;;;;22.66;79.97;99655.16;468153;111;923672;-73
2021/07/22 00:32:37;;;;;;;;;;;;;;;22.66;79.94;99657.14;469141;112;922706;-73
2021/07/22 00:33:40;;;;;;;;;;;;;;;22.65;79.96;99669.39;472534;110;923195;-75
2021/07/22 00:34:43;;;;;;;;;;;;;;;22.56;80.00;99660.97;471769;111;922711;-75
2021/07/22 00:35:47;;;;;;;;;;;;;;;22.50;80.31;99659.45;471882;111;922704;-74
2021/07/22 00:36:51;;;;;;;;;;;;;;;22.46;80.48;99655.67;471309;110;922659;-75
2021/07/22 00:37:54;;;;;;;;;;;;;;;22.43;80.55;99646.03;469076;110;922643;-73
2021/07/22 00:38:59;;;;;;;;;;;;;;;22.42;80.63;99649.94;470991;110;922313;-75
2021/07/22 00:40:02;;;;;;;;;;;;;;;22.43;80.61;99645.21;471939;110;922694;-76
2021/07/22 00:41:10;;;;;;;;;;;;;;;22.43;80.56;99645.21;470343;112;923319;-75
2021/07/22 00:42:11;;;;;;;;;;;;;;;22.43;79.93;99640.48;469832;111;922639;-74
2021/07/22 00:43:15;;;;;;;;;;;;;;;22.43;79.67;99639.66;469467;110;922773;-74
2021/07/22 00:44:18;;;;;;;;;;;;;;;22.42;79.62;99636.05;470066;110;922705;-75
2021/07/22 00:45:22;;;;;;;;;;;;;;;22.43;79.60;99643.26;470399;110;922654;-74
2021/07/22 00:46:25;;;;;;;;;;;;;;;22.43;79.45;99639.66;471739;110;922770;-75
2021/07/22 00:47:28;;;;;;;;;;;;;;;22.44;79.19;99647.65;470635;110;922649;-74
2021/07/22 00:48:32;;;;;;;;;;;;;;;22.45;78.99;99645.70;469440;110;921843;-74
2021/07/22 00:49:35;;;;;;;;;;;;;;;22.46;78.98;99647.34;470112;111;922703;-75
2021/07/22 00:50:38;;;;;;;;;;;;;;;22.46;78.92;99652.90;468357;112;923126;-74
2021/07/22 00:51:42;;;;;;;;;;;;;;;22.48;78.79;99652.59;469866;110;922683;-74
2021/07/22 00:52:46;;;;;;;;;;;;;;;22.46;78.79;99648.17;470576;110;921772;-75
2021/07/22 00:53:49;;;;;;;;;;;;;;;22.46;78.46;99658.45;470972;111;921569;-74
2021/07/22 00:54:52;;;;;;;;;;;;;;;22.44;78.28;99660.72;469975;110;923031;-75
2021/07/22 00:55:56;;;;;;;;;;;;;;;22.42;78.25;99654.67;471879;110;922735;-73
2021/07/22 00:56:59;;;;;;;;;;;;;;;22.39;78.21;99652.52;470921;110;922655;-74
2021/07/22 00:58:03;;;;;;;;;;;;;;;22.38;78.15;99653.67;471776;111;922703;-72
2021/07/22 00:59:06;;;;;;;;;;;;;;;22.36;77.89;99651.20;469308;110;921439;-74
2021/07/22 01:00:11;;;;;;;;;;;;;;;22.32;77.85;99646.59;469505;110;921444;-74
2021/07/22 01:01:16;;;;;;;;;;;;;;;22.28;77.53;99654.72;472348;110;921520;-72
2021/07/22 01:02:20;;;;;;;;;;;;;;;22.25;77.64;99660.09;471117;110;921554;-72
2021/07/22 01:03:24;;;;;;;;;;;;;;;22.21;77.61;99656.31;469020;111;921509;-72
2021/07/22 01:04:27;;;;;;;;;;;;;;;22.17;77.72;99663.60;469806;111;921450;-74
2021/07/22 01:05:30;;;;;;;;;;;;;;;22.14;77.75;99662.30;471061;110;921486;-75
2021/07/22 01:06:34;;;;;;;;;;;;;;;22.12;78.03;99650.66;468999;110;921647;-75
2021/07/22 01:07:39;;;;;;;;;;;;;;;22.11;78.24;99656.55;468621;112;921477;-75
2021/07/22 01:08:44;;;;;;;;;;;;;;;22.13;78.33;99651.48;468898;110;921469;-74
2021/07/22 01:09:57;;;;;;;;;;;;;;;22.13;78.29;99655.09;471130;111;921550;-74
2021/07/22 01:11:01;;;;;;;;;;;;;;;22.13;78.38;99657.86;470577;110;921557;-74
2021/07/22 01:12:06;;;;;;;;;;;;;;;22.15;78.35;99661.16;469425;110;922994;-73
2021/07/22 01:13:09;;;;;;;;;;;;;;;22.16;78.37;99660.03;468466;110;923480;-74
2021/07/22 01:14:12;;;;;;;;;;;;;;;22.17;78.31;99669.98;469140;110;923096;-73
2021/07/22 01:15:17;;;;;;;;;;;;;;;22.18;78.35;99668.85;472728;110;922650;-74
2021/07/22 01:16:21;;;;;;;;;;;;;;;22.19;78.08;99675.23;470557;110;923122;-73
2021/07/22 01:17:27;;;;;;;;;;;;;;;22.19;78.08;99678.00;472860;110;922216;-74
2021/07/22 01:18:30;;;;;;;;;;;;;;;22.18;78.15;99668.85;466354;112;922708;-73
2021/07/22 01:19:34;;;;;;;;;;;;;;;22.19;78.08;99675.23;463531;113;922677;-77
2021/07/22 01:20:37;;;;;;;;;;;;;;;22.20;78.04;99685.20;469022;110;922711;-73
2021/07/22 01:21:41;;;;;;;;;;;;;;;22.20;78.12;99680.48;470743;110;922756;-75
2021/07/22 01:22:46;;;;;;;;;;;;;;;22.19;77.96;99675.23;472349;110;922765;-73
2021/07/22 01:23:49;;;;;;;;;;;;;;;22.20;78.05;99685.20;463907;112;922691;-74
2021/07/22 01:25:07;;;;;;;;;;;;;;;22.20;78.05;99682.43;461944;112;922663;-74
2021/07/22 01:26:11;;;;;;;;;;;;;;;22.20;78.02;99679.66;471784;110;922618;-74
2021/07/22 01:27:15;;;;;;;;;;;;;;;22.20;77.90;99677.70;470447;110;923332;-73
2021/07/22 01:28:20;;;;;;;;;;;;;;;22.19;77.76;99684.38;471254;110;922696;-72
2021/07/22 01:29:24;;;;;;;;;;;;;;;22.19;77.88;99686.34;460655;114;921399;-74
2021/07/22 01:30:28;;;;;;;;;;;;;;;22.19;77.82;99678.83;461677;113;922696;-73
2021/07/22 01:31:32;;;;;;;;;;;;;;;22.20;77.86;99685.20;450962;115;922745;-73
2021/07/22 01:32:36;;;;;;;;;;;;;;;22.19;77.84;99672.45;454893;114;922976;-74
2021/07/22 01:33:39;;;;;;;;;;;;;;;22.20;77.66;99679.66;451418;116;923237;-73
2021/07/22 01:34:43;;;;;;;;;;;;;;;22.18;77.55;99679.13;458340;114;922692;-74
2021/07/22 01:35:48;;;;;;;;;;;;;;;22.15;77.48;99677.82;460980;113;922667;-74
2021/07/22 01:36:51;;;;;;;;;;;;;;;22.12;77.40;99677.61;462317;112;923096;-72
2021/07/22 01:37:54;;;;;;;;;;;;;;;22.06;77.39;99671.34;452882;114;922463;-73
2021/07/22 01:39:02;;;;;;;;;;;;;;;22.00;77.44;99675.38;460580;113;923789;-73
2021/07/22 01:40:03;;;;;;;;;;;;;;;21.94;77.73;99666.34;452960;115;921841;-73
2021/07/22 01:41:07;;;;;;;;;;;;;;;21.93;77.92;99683.30;452603;115;921515;-73
2021/07/22 01:42:11;;;;;;;;;;;;;;;21.90;78.09;99673.63;461003;113;923316;-73
2021/07/22 01:43:14;;;;;;;;;;;;;;;21.89;78.09;99680.30;460648;113;921654;-74
2021/07/22 01:44:20;;;;;;;;;;;;;;;21.89;78.22;99682.25;451075;115;922733;-72
2021/07/22 01:45:23;;;;;;;;;;;;;;;21.90;78.24;99672.80;449108;117;923136;-72
2021/07/22 01:46:29;;;;;;;;;;;;;;;21.90;78.27;99681.13;450047;116;922635;-73
2021/07/22 01:47:34;;;;;;;;;;;;;;;21.90;78.31;99681.13;453106;114;922656;-73
2021/07/22 01:48:37;;;;;;;;;;;;;;;21.89;78.33;99682.25;453968;114;922139;-75
2021/07/22 01:49:41;;;;;;;;;;;;;;;21.89;78.33;99696.13;454002;114;921600;-74
2021/07/22 01:50:44;;;;;;;;;;;;;;;21.89;78.37;99690.58;452010;115;921465;-74
2021/07/22 01:51:47;;;;;;;;;;;;;;;21.90;78.40;99689.45;452243;115;921401;-73
2021/07/22 01:52:51;;;;;;;;;;;;;;;21.90;78.44;99693.05;456796;114;921489;-72
2021/07/22 01:53:54;;;;;;;;;;;;;;;21.90;78.52;99687.50;461043;112;921520;-75
2021/07/22 01:54:57;;;;;;;;;;;;;;;21.91;78.54;99697.48;444692;116;921527;-72
2021/07/22 01:56:01;;;;;;;;;;;;;;;21.93;78.39;99697.17;450277;115;921433;-73
2021/07/22 01:57:06;;;;;;;;;;;;;;;21.92;78.29;99692.75;452725;114;921502;-74
2021/07/22 01:58:11;;;;;;;;;;;;;;;21.91;78.29;99694.70;452949;114;921602;-73
2021/07/22 01:59:16;;;;;;;;;;;;;;;21.93;78.32;99698.00;461774;112;921544;-72
2021/07/22 02:00:19;;;;;;;;;;;;;;;21.94;78.36;99704.37;462119;113;921462;-73
2021/07/22 02:01:24;;;;;;;;;;;;;;;21.94;78.41;99705.20;451454;114;921469;-73
2021/07/22 02:02:30;;;;;;;;;;;;;;;21.95;78.47;99700.47;453342;114;921400;-73
2021/07/22 02:03:35;;;;;;;;;;;;;;;21.96;78.42;99699.34;453073;114;923545;-72
2021/07/22 02:04:39;;;;;;;;;;;;;;;21.95;78.21;99704.07;454033;114;922708;-75
2021/07/22 02:05:44;;;;;;;;;;;;;;;21.96;78.22;99705.72;460708;112;921447;-72
2021/07/22 02:06:47;;;;;;;;;;;;;;;21.97;78.20;99703.77;461575;112;921588;-74
2021/07/22 02:07:52;;;;;;;;;;;;;;;21.98;78.13;99708.19;452328;116;921430;-73
2021/07/22 02:08:57;;;;;;;;;;;;;;;21.98;78.13;99711.80;461631;112;921626;-73
2021/07/22 02:10:00;;;;;;;;;;;;;;;22.01;78.12;99710.33;450376;115;921558;-72
2021/07/22 02:11:05;;;;;;;;;;;;;;;22.03;77.90;99708.91;451716;114;922668;-75
2021/07/22 02:12:10;;;;;;;;;;;;;;;22.04;77.77;99707.77;457289;114;921480;-73
2021/07/22 02:13:13;;;;;;;;;;;;;;;22.05;77.64;99703.05;458513;114;922666;-73
2021/07/22 02:14:19;;;;;;;;;;;;;;;22.05;77.04;99706.61;450607;115;922766;-73
2021/07/22 02:15:23;;;;;;;;;;;;;;;22.04;76.89;99705.00;454075;114;923235;-73
2021/07/22 02:16:26;;;;;;;;;;;;;;;22.02;76.94;99704.48;444398;119;926325;-72
2021/07/22 02:17:31;;;;;;;;;;;;;;;21.99;76.87;99705.11;453756;114;922723;-72
2021/07/22 02:18:34;;;;;;;;;;;;;;;21.98;76.72;99710.97;461593;112;922731;-73
2021/07/22 02:19:42;;;;;;;;;;;;;;;21.96;76.63;99711.27;455735;114;922673;-73
2021/07/22 02:20:46;;;;;;;;;;;;;;;21.95;76.61;99706.02;455347;115;922844;-70
2021/07/22 02:21:49;;;;;;;;;;;;;;;21.92;76.60;99709.41;453200;114;923235;-71
2021/07/22 02:22:52;;;;;;;;;;;;;;;21.92;76.67;99709.41;461320;113;922647;-73
2021/07/22 02:24:14;;;;;;;;;;;;;;;21.93;76.82;99706.33;454350;115;924593;-72
2021/07/22 02:25:22;;;;;;;;;;;;;;;21.94;76.80;99707.97;457177;113;922614;-73
2021/07/22 02:26:27;;;;;;;;;;;;;;;21.95;76.62;99706.02;464121;112;922684;-72
2021/07/22 02:27:35;;;;;;;;;;;;;;;21.96;76.61;99707.67;464389;112;922655;-73
2021/07/22 02:28:37;;;;;;;;;;;;;;;21.96;76.71;99716.00;461955;112;922844;-75
2021/07/22 02:29:40;;;;;;;;;;;;;;;21.97;76.63;99715.70;462672;114;922602;-73
2021/07/22 02:30:44;;;;;;;;;;;;;;;21.98;76.44;99714.57;462958;112;922655;-75
2021/07/22 02:31:48;;;;;;;;;;;;;;;21.97;76.44;99715.70;462953;112;922690;-73
2021/07/22 02:32:51;;;;;;;;;;;;;;;21.98;76.43;99719.30;462646;112;922572;-73
2021/07/22 02:33:55;;;;;;;;;;;;;;;21.97;76.05;99723.20;461530;114;922300;-73
2021/07/22 02:34:58;;;;;;;;;;;;;;;21.95;75.64;99717.95;463477;112;922762;-73
2021/07/22 02:36:09;;;;;;;;;;;;;;;21.91;75.72;99722.45;435112;120;922798;-74
2021/07/22 02:37:23;;;;;;;;;;;;;;;21.90;75.83;99726.36;464124;112;923105;-73
2021/07/22 02:38:28;;;;;;;;;;;;;;;21.90;75.91;99726.36;465358;110;923158;-72
2021/07/22 02:39:31;;;;;;;;;;;;;;;21.89;75.73;99730.26;465996;111;922640;-74
2021/07/22 02:40:35;;;;;;;;;;;;;;;21.90;75.71;99731.91;458294;114;921559;-73
2021/07/22 02:41:38;;;;;;;;;;;;;;;21.89;75.80;99735.81;466852;111;921441;-74
2021/07/22 02:42:43;;;;;;;;;;;;;;;21.90;75.83;99740.23;464594;112;921390;-71
2021/07/22 02:43:48;;;;;;;;;;;;;;;21.90;75.81;99747.73;463404;111;921556;-73
2021/07/22 02:44:53;;;;;;;;;;;;;;;21.89;75.76;99752.46;466696;111;921482;-73
2021/07/22 02:46:08;;;;;;;;;;;;;;;21.88;75.57;99750.84;464916;112;921460;-71
2021/07/22 02:47:13;;;;;;;;;;;;;;;21.88;75.43;99753.62;464466;111;921441;-73
2021/07/22 02:48:17;;;;;;;;;;;;;;;21.85;75.48;99765.32;465567;111;921427;-73
2021/07/22 02:49:21;;;;;;;;;;;;;;;21.82;75.28;99757.63;466444;112;921523;-73
2021/07/22 02:50:24;;;;;;;;;;;;;;;21.79;75.11;99761.00;459441;113;921575;-73
2021/07/22 02:51:29;;;;;;;;;;;;;;;21.73;75.22;99762.23;457943;115;921637;-73
2021/07/22 02:52:33;;;;;;;;;;;;;;;21.69;75.29;99761.22;458993;114;921599;-74
2021/07/22 02:53:37;;;;;;;;;;;;;;;21.67;75.34;99766.23;459387;113;921597;-75
2021/07/22 02:54:51;;;;;;;;;;;;;;;21.67;75.41;99771.00;458349;113;922698;-72
2021/07/22 02:55:56;;;;;;;;;;;;;;;21.64;75.46;99762.14;457945;114;922514;-74
2021/07/22 02:57:01;;;;;;;;;;;;;;;21.62;75.50;99764.39;459198;112;923201;-71
2021/07/22 02:58:05;;;;;;;;;;;;;;;21.61;75.61;99762.74;459151;113;922705;-72
2021/07/22 02:59:10;;;;;;;;;;;;;;;21.61;75.80;99762.74;456321;114;923257;-71
2021/07/22 03:00:15;;;;;;;;;;;;;;;21.63;75.89;99770.77;466180;111;922645;-73
2021/07/22 03:01:19;;;;;;;;;;;;;;;21.66;75.90;99761.84;458787;113;922655;-73
2021/07/22 03:02:23;;;;;;;;;;;;;;;21.68;75.72;99767.06;462429;114;922760;-71
2021/07/22 03:03:27;;;;;;;;;;;;;;;21.68;75.72;99762.34;460434;113;922712;-74
2021/07/22 03:04:31;;;;;;;;;;;;;;;21.69;75.70;99771.48;460069;114;922738;-72
2021/07/22 03:05:48;;;;;;;;;;;;;;;21.69;75.75;99774.27;461489;113;922764;-73
2021/07/22 03:06:52;;;;;;;;;;;;;;;21.69;75.82;99771.48;460563;113;922552;-72
2021/07/22 03:07:56;;;;;;;;;;;;;;;21.69;75.89;99775.09;461466;114;923122;-72
2021/07/22 03:09:00;;;;;;;;;;;;;;;21.70;75.84;99776.73;458840;114;921597;-74
2021/07/22 03:10:05;;;;;;;;;;;;;;;21.72;75.72;99776.44;459907;113;922704;-74
2021/07/22 03:11:10;;;;;;;;;;;;;;;21.73;75.62;99781.66;460091;113;921475;-73
2021/07/22 03:12:13;;;;;;;;;;;;;;;21.74;75.57;99776.94;459632;113;921473;-73
2021/07/22 03:13:24;;;;;;;;;;;;;;;21.76;75.58;99781.06;458357;114;922278;-72
2021/07/22 03:14:27;;;;;;;;;;;;;;;21.77;75.64;99779.94;458289;114;922996;-73
2021/07/22 03:15:31;;;;;;;;;;;;;;;21.79;75.62;99780.43;459792;114;923459;-73
2021/07/22 03:16:36;;;;;;;;;;;;;;;21.82;75.63;99782.61;460576;113;922450;-73
2021/07/22 03:17:41;;;;;;;;;;;;;;;21.84;75.54;99779.50;458883;114;922595;-74
2021/07/22 03:18:46;;;;;;;;;;;;;;;21.85;75.46;99781.97;457920;114;922655;-75
2021/07/22 03:19:49;;;;;;;;;;;;;;;21.87;75.39;99785.27;459786;113;922634;-74
2021/07/22 03:20:54;;;;;;;;;;;;;;;21.88;75.24;99784.15;460125;114;922695;-72
2021/07/22 03:21:58;;;;;;;;;;;;;;;21.89;75.11;99787.72;458767;114;924366;-73
2021/07/22 03:23:20;;;;;;;;;;;;;;;21.89;75.05;99785.77;457914;113;922698;-74
2021/07/22 03:24:25;;;;;;;;;;;;;;;21.90;75.09;99790.19;464188;112;922604;-76
2021/07/22 03:25:29;;;;;;;;;;;;;;;21.91;74.73;99785.47;465556;113;921982;-75
2021/07/22 03:26:42;;;;;;;;;;;;;;;21.88;74.78;99789.70;462491;113;922640;-72
2021/07/22 03:27:46;;;;;;;;;;;;;;;21.86;74.76;99785.58;462879;113;923586;-74
2021/07/22 03:28:51;;;;;;;;;;;;;;;21.84;74.82;99783.09;463503;112;921940;-74
2021/07/22 03:29:56;;;;;;;;;;;;;;;21.84;74.91;99787.83;464132;112;921924;-74
2021/07/22 03:30:59;;;;;;;;;;;;;;;21.84;74.98;99782.27;462431;114;921478;-74
2021/07/22 03:32:22;;;;;;;;;;;;;;;21.84;75.07;99785.88;461426;112;921534;-73
2021/07/22 03:33:26;;;;;;;;;;;;;;;21.85;75.04;99779.20;464404;112;921493;-74
2021/07/22 03:34:31;;;;;;;;;;;;;;;21.87;75.14;99785.27;456441;114;921461;-73
2021/07/22 03:35:37;;;;;;;;;;;;;;;21.89;75.09;99782.99;459611;113;921478;-73
2021/07/22 03:36:42;;;;;;;;;;;;;;;21.91;75.04;99789.06;460520;112;921504;-72
2021/07/22 03:37:47;;;;;;;;;;;;;;;21.93;75.01;99792.38;456231;113;921516;-72
2021/07/22 03:38:52;;;;;;;;;;;;;;;21.94;74.96;99791.25;461301;113;921439;-73
2021/07/22 03:40:09;;;;;;;;;;;;;;;21.96;74.92;99788.17;463311;112;921498;-72
2021/07/22 03:41:13;;;;;;;;;;;;;;;21.98;74.77;99792.30;464284;112;921489;-72
2021/07/22 03:42:17;;;;;;;;;;;;;;;21.99;74.76;99791.17;464972;111;921419;-73
2021/07/22 03:43:23;;;;;;;;;;;;;;;22.00;74.76;99790.02;463136;112;923077;-72
2021/07/22 03:44:27;;;;;;;;;;;;;;;22.01;74.78;99790.84;464734;112;922816;-72
2021/07/22 03:45:31;;;;;;;;;;;;;;;22.02;74.44;99796.09;466158;111;923171;-74
2021/07/22 03:46:35;;;;;;;;;;;;;;;22.01;74.33;99788.89;467092;112;922723;-76
2021/07/22 03:47:38;;;;;;;;;;;;;;;22.00;74.27;99791.96;464596;112;922700;-76
2021/07/22 03:48:41;;;;;;;;;;;;;;;21.98;74.26;99780.36;466396;111;922666;-72
2021/07/22 03:49:44;;;;;;;;;;;;;;;21.96;74.44;99779.84;467902;111;922778;-76
2021/07/22 03:50:56;;;;;;;;;;;;;;;21.95;74.58;99787.34;456954;114;921708;-73
2021/07/22 03:51:59;;;;;;;;;;;;;;;21.97;74.50;99792.59;458008;113;922837;-74
2021/07/22 03:53:04;;;;;;;;;;;;;;;21.97;74.44;99787.87;466007;112;922633;-75
2021/07/22 03:54:08;;;;;;;;;;;;;;;21.97;74.35;99785.09;464918;111;921567;-74
2021/07/22 03:55:12;;;;;;;;;;;;;;;21.97;74.39;99785.09;465678;112;922661;-74
2021/07/22 03:56:35;;;;;;;;;;;;;;;21.98;74.49;99778.41;464981;112;922629;-73
2021/07/22 03:57:40;;;;;;;;;;;;;;;21.99;74.37;99779.23;464986;111;922686;-73
2021/07/22 03:58:44;;;;;;;;;;;;;;;22.00;74.41;99778.91;463129;112;922572;-73
2021/07/22 04:00:01;;;;;;;;;;;;;;;22.01;74.27;99780.56;464114;112;921658;-73
2021/07/22 04:01:06;;;;;;;;;;;;;;;22.04;74.30;99779.13;464204;111;922562;-73
2021/07/22 04:02:11;;;;;;;;;;;;;;;22.07;74.20;99778.50;465553;111;922624;-73
2021/07/22 04:03:19;;;;;;;;;;;;;;;22.11;74.08;99776.73;464455;112;922681;-73
2021/07/22 04:04:23;;;;;;;;;;;;;;;22.13;74.06;99774.48;467898;111;923148;-72
2021/07/22 04:05:28;;;;;;;;;;;;;;;22.15;74.09;99780.56;465764;113;922706;-76
2021/07/22 04:06:35;;;;;;;;;;;;;;;22.19;74.01;99777.97;466168;111;923237;-73
2021/07/22 04:07:39;;;;;;;;;;;;;;;22.22;74.00;99780.94;466874;112;923450;-72
2021/07/22 04:08:53;;;;;;;;;;;;;;;22.26;73.83;99781.16;446588;114;922782;-73
2021/07/22 04:10:11;;;;;;;;;;;;;;;22.29;73.66;99767.45;457388;113;922676;-73
2021/07/22 04:11:22;;;;;;;;;;;;;;;22.33;73.58;99771.25;466009;111;924072;-74
2021/07/22 04:12:44;;;;;;;;;;;;;;;22.35;73.51;99765.39;466220;112;922653;-72
2021/07/22 04:13:49;;;;;;;;;;;;;;;22.39;73.42;99774.73;463983;111;922694;-75
2021/07/22 04:15:01;;;;;;;;;;;;;;;22.40;73.36;99777.20;465361;111;921619;-72
2021/07/22 04:16:23;;;;;;;;;;;;;;;22.43;73.32;99782.15;466404;112;922680;-72
2021/07/22 04:17:40;;;;;;;;;;;;;;;22.47;73.33;99785.11;463706;113;922747;-71
2021/07/22 04:19:03;;;;;;;;;;;;;;;22.50;73.15;99783.65;465749;112;923003;-72
2021/07/22 04:20:11;;;;;;;;;;;;;;;22.53;73.11;99783.04;465691;111;921617;-73
2021/07/22 04:21:35;;;;;;;;;;;;;;;22.56;73.00;99785.17;465683;112;921555;-71
2021/07/22 04:22:43;;;;;;;;;;;;;;;22.57;72.83;99778.49;462363;112;921534;-73
2021/07/22 04:24:02;;;;;;;;;;;;;;;22.58;72.79;99778.19;446959;117;921785;-72
2021/07/22 04:25:14;;;;;;;;;;;;;;;22.59;72.64;99782.61;439057;119;922504;-73
2021/07/22 04:26:25;;;;;;;;;;;;;;;22.58;72.52;99778.19;432256;118;921640;-73
2021/07/22 04:27:43;;;;;;;;;;;;;;;22.59;72.37;99767.90;447415;116;921523;-71
2021/07/22 04:28:48;;;;;;;;;;;;;;;22.59;72.36;99773.45;460860;112;921651;-74
2021/07/22 04:29:51;;;;;;;;;;;;;;;22.59;72.19;99771.50;463355;112;921669;-71
2021/07/22 04:30:55;;;;;;;;;;;;;;;22.56;72.04;99768.51;462337;114;921559;-73
2021/07/22 04:32:01;;;;;;;;;;;;;;;22.55;71.94;99778.00;460916;113;921495;-69
2021/07/22 04:33:14;;;;;;;;;;;;;;;22.51;71.92;99780.56;460991;112;921578;-71
2021/07/22 04:34:20;;;;;;;;;;;;;;;22.45;71.85;99776.27;452435;114;921795;-71
2021/07/22 04:35:41;;;;;;;;;;;;;;;22.43;72.09;99784.11;461451;112;921371;-71
2021/07/22 04:36:46;;;;;;;;;;;;;;;22.40;72.07;99787.48;461029;112;921788;-72
2021/07/22 04:37:54;;;;;;;;;;;;;;;22.38;72.04;99787.00;459964;112;921603;-71
2021/07/22 04:39:02;;;;;;;;;;;;;;;22.36;72.00;99800.36;452404;112;921727;-69
2021/07/22 04:40:11;;;;;;;;;;;;;;;22.34;71.99;99800.67;459684;112;921453;-72
2021/07/22 04:41:16;;;;;;;;;;;;;;;22.31;72.14;99798.53;460500;112;922671;-71
2021/07/22 04:42:38;;;;;;;;;;;;;;;22.31;72.08;99806.86;461355;113;923148;-71
2021/07/22 04:44:02;;;;;;;;;;;;;;;22.29;72.12;99805.52;460922;112;922726;-71
2021/07/22 04:45:24;;;;;;;;;;;;;;;22.27;72.33;99808.63;463287;112;922237;-71
2021/07/22 04:46:42;;;;;;;;;;;;;;;22.28;72.34;99814.97;462146;112;922692;-71
2021/07/22 04:47:56;;;;;;;;;;;;;;;22.27;72.36;99814.17;449732;116;922791;-70
2021/07/22 04:49:07;;;;;;;;;;;;;;;22.28;72.18;99821.35;448958;115;923166;-71
2021/07/22 04:50:13;;;;;;;;;;;;;;;22.27;72.11;99818.91;457208;112;923133;-70
2021/07/22 04:51:21;;;;;;;;;;;;;;;22.26;72.06;99823.64;455200;113;922781;-69
2021/07/22 04:52:30;;;;;;;;;;;;;;;22.23;72.07;99827.02;460174;114;923131;-72
2021/07/22 04:53:35;;;;;;;;;;;;;;;22.21;72.15;99823.75;461846;112;922615;-71
2021/07/22 04:54:40;;;;;;;;;;;;;;;22.19;72.20;99825.17;463517;112;922661;-70
2021/07/22 04:55:44;;;;;;;;;;;;;;;22.18;72.42;99829.08;461869;112;923583;-68
2021/07/22 04:56:48;;;;;;;;;;;;;;;22.18;72.55;99831.86;460938;114;922519;-69
2021/07/22 04:57:58;;;;;;;;;;;;;;;22.17;72.71;99831.03;461044;112;922636;-71
2021/07/22 04:59:02;;;;;;;;;;;;;;;22.17;72.69;99827.43;461154;114;921587;-71
2021/07/22 05:00:07;;;;;;;;;;;;;;;22.16;72.80;99831.36;458071;113;922881;-71
2021/07/22 05:01:14;;;;;;;;;;;;;;;22.14;72.89;99828.89;458498;113;922712;-72
2021/07/22 05:02:19;;;;;;;;;;;;;;;22.15;72.96;99829.71;462155;114;922614;-69
2021/07/22 05:03:23;;;;;;;;;;;;;;;22.16;72.81;99831.36;460263;112;922650;-71
2021/07/22 05:04:27;;;;;;;;;;;;;;;22.15;72.49;99824.16;462315;112;922656;-71
2021/07/22 05:05:36;;;;;;;;;;;;;;;22.11;72.52;99829.48;459841;113;922621;-70
2021/07/22 05:06:46;;;;;;;;;;;;;;;22.08;72.57;99827.34;439628;117;923024;-70
2021/07/22 05:08:07;;;;;;;;;;;;;;;22.06;72.61;99821.27;461271;112;922678;-70
2021/07/22 05:09:22;;;;;;;;;;;;;;;22.05;72.67;99828.77;460642;112;923112;-70
2021/07/22 05:10:37;;;;;;;;;;;;;;;22.05;72.60;99823.22;461843;112;922720;-73
2021/07/22 05:11:42;;;;;;;;;;;;;;;22.04;72.54;99821.59;457938;113;922650;-70
2021/07/22 05:13:00;;;;;;;;;;;;;;;22.03;72.71;99825.50;462333;113;922683;-70
2021/07/22 05:14:06;;;;;;;;;;;;;;;22.04;73.01;99826.33;460848;112;922868;-71
2021/07/22 05:15:30;;;;;;;;;;;;;;;22.04;73.31;99823.55;461563;113;921594;-72
2021/07/22 05:16:44;;;;;;;;;;;;;;;22.02;74.21;99818.30;460673;113;921455;-70
2021/07/22 05:18:05;;;;;;;;;;;;;;;22.00;74.75;99817.77;459888;114;921458;-72
2021/07/22 05:19:22;;;;;;;;;;;;;;;21.97;75.33;99818.41;442218;119;921712;-72
2021/07/22 05:20:45;;;;;;;;;;;;;;;;;;443764;116;921798;-70
2021/07/22 05:21:50;;;;;;;;;;;;;;;21.94;75.79;99829.28;460982;112;921558;-71
2021/07/22 05:23:01;;;;;;;;;;;;;;;21.91;75.83;99833.48;459895;113;921464;-70
2021/07/22 05:24:21;;;;;;;;;;;;;;;21.87;76.31;99826.91;461387;112;921602;-72
2021/07/22 05:25:26;;;;;;;;;;;;;;;21.85;76.89;99828.33;460773;113;921473;-72
2021/07/22 05:26:49;;;;;;;;;;;;;;;21.81;77.04;99838.41;461142;112;921536;-72
2021/07/22 05:28:00;;;;;;;;;;;;;;;21.75;77.44;99831.31;463983;112;921510;-71
2021/07/22 05:29:08;;;;;;;;;;;;;;;21.68;77.81;99834.48;461869;112;921620;-71
2021/07/22 05:30:29;;;;;;;;;;;;;;;21.59;78.45;99836.33;463492;112;921495;-70
2021/07/22 05:31:47;;;;;;;;;;;;;;;21.52;79.21;99835.89;460199;113;921435;-72
2021/07/22 05:32:54;;;;;;;;;;;;;;;21.47;79.41;99838.77;448997;112;922754;-71
2021/07/22 05:34:17;;;;;;;;;;;;;;;21.43;79.19;99837.73;461914;113;922308;-72
2021/07/22 05:35:39;;;;;;;;;;;;;;;21.35;78.92;99838.41;459887;114;923034;-73
2021/07/22 05:36:46;;;;;;;;;;;;;;;21.27;79.05;99836.36;461695;112;922738;-70
2021/07/22 05:38:08;;;;;;;;;;;;;;;21.23;79.36;99831.39;461492;112;922534;-71
2021/07/22 05:39:11;;;;;;;;;;;;;;;21.22;79.60;99834.50;461675;113;922679;-71
2021/07/22 05:40:15;;;;;;;;;;;;;;;21.22;79.62;99826.18;462030;112;922706;-72
2021/07/22 05:41:19;;;;;;;;;;;;;;;21.24;79.72;99821.13;452425;114;922740;-72
2021/07/22 05:42:23;;;;;;;;;;;;;;;21.25;79.79;99816.41;453253;114;923164;-70
2021/07/22 05:43:26;;;;;;;;;;;;;;;21.28;79.77;99819.39;460652;113;922877;-71